• Join FlightAware (Why Join?)
  • Login
  • US Flag 
12:46PM EDT


 

Airport Tracker/Info


-or-


 

Live Flight TrackerFlight Track Log ✈ N71AF ✈ 16-Aug-2014 ✈ KADS - KDUA

Flight Track Log - Related Links

Times and Time Zones

All times are in EDT time to prevent confusion due to time zone crossing. See the N71AF flight status page for this flight to view local times or setup timezone preferences in your user account.

Time Position Orientation Groundspeed Altitude Reporting Facility
EDT Latitude Longitude Course Direction KTS MPH feet Rate Location/Type
10:57PM 32.9667 -96.8333 90° East 66 76 1,000  Level Dallas / Fort Worth TRACON
10:58PM 32.9667 -96.8167 90° East 82 94 1,500 360 Climbing Dallas / Fort Worth TRACON
10:59PM 32.9828 -96.8108 17° North 85 98 1,700 300 Climbing Fort Worth Center
11:00PM 33.0050 -96.7931 34° Northeast 92 106 2,100 300 Climbing Fort Worth Center
11:01PM 33.0339 -96.7839 15° North 106 122 2,400 300 Climbing Fort Worth Center
11:02PM 33.0658 -96.7794 North 107 123 2,800 360 Climbing Fort Worth Center
11:03PM 33.0931 -96.7675 20° North 107 123 3,200 300 Climbing Fort Worth Center
11:04PM 33.1208 -96.7525 24° Northeast 107 123 3,500 240 Climbing Fort Worth Center
11:05PM 33.1517 -96.7406 18° North 114 131 3,700 240 Climbing Fort Worth Center
11:06PM 33.1825 -96.7300 16° North 114 131 4,000 300 Climbing Fort Worth Center
11:07PM 33.2119 -96.7192 17° North 114 131 4,400 300 Climbing Fort Worth Center
11:08PM 33.2456 -96.7117 11° North 113 130 4,700 300 Climbing Fort Worth Center
11:09PM 33.2742 -96.7008 18° North 112 129 5,100 360 Climbing Fort Worth Center
11:10PM 33.3028 -96.6936 12° North 104 120 5,500 240 Climbing Fort Worth Center
11:11PM 33.3347 -96.6869 10° North 115 132 5,600  Climbing Fort Worth Center
11:12PM 33.3694 -96.6736 18° North 127 146 5,500 -60 Descending Fort Worth Center
11:13PM 33.4036 -96.6561 23° Northeast 126 145 5,500  Level Fort Worth Center
11:14PM 33.4333 -96.6411 23° Northeast 119 137 5,500  Level Fort Worth Center
11:15PM 33.4636 -96.6264 22° Northeast 119 137 5,600  Climbing Fort Worth Center
11:16PM 33.4936 -96.6122 21° North 114 131 5,600  Level Fort Worth Center
11:17PM 33.5239 -96.5989 20° North 116 133 5,600  Level Fort Worth Center
11:18PM 33.5589 -96.5878 15° North 119 137 5,600 -60 Level Fort Worth Center
11:19PM 33.5900 -96.5742 20° North 119 137 5,500  Descending Fort Worth Center
11:20PM 33.6203 -96.5608 20° North 116 133 5,600  Climbing Fort Worth Center
11:21PM 33.6489 -96.5403 31° Northeast 120 138 5,500 -60 Descending Fort Worth Center
11:22PM 33.6811 -96.5244 22° Northeast 121 139 5,500  Level Fort Worth Center
11:23PM 33.7142 -96.5136 15° North 118 136 5,500  Level Fort Worth Center
11:24PM 33.7442 -96.4983 23° Northeast 118 136 5,500  Level Fort Worth Center
11:25PM 33.7725 -96.4811 27° Northeast 117 135 5,500  Level Fort Worth Center
11:26PM 33.8031 -96.4681 20° North 116 133 5,500  Level Fort Worth Center
11:27PM 33.8314 -96.4625 North 112 129 5,500  Level Fort Worth Center